sensor_id;sensor_type;location;lat;lon;timestamp;pressure;altitude;pressure_sealevel;temperature
20092;BMP180;10205;49.678;6.560;2023-02-28T00:01:21;100937.00;;;6.20
20092;BMP180;10205;49.678;6.560;2023-02-28T00:03:49;100933.00;;;6.20
20092;BMP180;10205;49.678;6.560;2023-02-28T00:06:16;100933.00;;;6.20
20092;BMP180;10205;49.678;6.560;2023-02-28T00:08:44;100924.00;;;6.20
20092;BMP180;10205;49.678;6.560;2023-02-28T00:11:13;100940.00;;;6.10
20092;BMP180;10205;49.678;6.560;2023-02-28T00:13:45;100938.00;;;6.10
20092;BMP180;10205;49.678;6.560;2023-02-28T00:16:16;100933.00;;;6.10
20092;BMP180;10205;49.678;6.560;2023-02-28T00:18:45;100929.00;;;6.00
20092;BMP180;10205;49.678;6.560;2023-02-28T00:21:18;100930.00;;;6.00
20092;BMP180;10205;49.678;6.560;2023-02-28T00:23:46;100930.00;;;6.00
20092;BMP180;10205;49.678;6.560;2023-02-28T00:26:13;100935.00;;;6.00
20092;BMP180;10205;49.678;6.560;2023-02-28T00:28:42;100943.00;;;6.00
20092;BMP180;10205;49.678;6.560;2023-02-28T00:31:09;100944.00;;;5.90
20092;BMP180;10205;49.678;6.560;2023-02-28T00:33:36;100928.00;;;5.90
20092;BMP180;10205;49.678;6.560;2023-02-28T00:36:07;100931.00;;;5.90
20092;BMP180;10205;49.678;6.560;2023-02-28T00:38:34;100940.00;;;5.90
20092;BMP180;10205;49.678;6.560;2023-02-28T00:41:02;100937.00;;;5.90
20092;BMP180;10205;49.678;6.560;2023-02-28T00:43:32;100943.00;;;5.90
20092;BMP180;10205;49.678;6.560;2023-02-28T00:46:02;100940.00;;;5.90
20092;BMP180;10205;49.678;6.560;2023-02-28T00:48:29;100934.00;;;5.80
20092;BMP180;10205;49.678;6.560;2023-02-28T00:50:56;100937.00;;;5.80
20092;BMP180;10205;49.678;6.560;2023-02-28T00:53:23;100932.00;;;5.80
20092;BMP180;10205;49.678;6.560;2023-02-28T00:55:50;100939.00;;;5.80
20092;BMP180;10205;49.678;6.560;2023-02-28T00:58:17;100933.00;;;5.80
20092;BMP180;10205;49.678;6.560;2023-02-28T01:00:45;100944.00;;;5.80
20092;BMP180;10205;49.678;6.560;2023-02-28T01:03:17;100931.00;;;5.80
20092;BMP180;10205;49.678;6.560;2023-02-28T01:05:46;100940.00;;;5.70
20092;BMP180;10205;49.678;6.560;2023-02-28T01:08:14;100951.00;;;5.70
20092;BMP180;10205;49.678;6.560;2023-02-28T01:10:42;100942.00;;;5.70
20092;BMP180;10205;49.678;6.560;2023-02-28T01:13:09;100929.00;;;5.70
20092;BMP180;10205;49.678;6.560;2023-02-28T01:15:43;100945.00;;;5.70
20092;BMP180;10205;49.678;6.560;2023-02-28T01:18:10;100935.00;;;5.60
20092;BMP180;10205;49.678;6.560;2023-02-28T01:20:39;100936.00;;;5.60
20092;BMP180;10205;49.678;6.560;2023-02-28T01:23:06;100938.00;;;5.60
20092;BMP180;10205;49.678;6.560;2023-02-28T01:25:34;100935.00;;;5.50
20092;BMP180;10205;49.678;6.560;2023-02-28T01:28:01;100940.00;;;5.50
20092;BMP180;10205;49.678;6.560;2023-02-28T01:30:28;100945.00;;;5.50
20092;BMP180;10205;49.678;6.560;2023-02-28T01:32:56;100951.00;;;5.50
20092;BMP180;10205;49.678;6.560;2023-02-28T01:35:23;100949.00;;;5.40
20092;BMP180;10205;49.678;6.560;2023-02-28T01:37:51;100929.00;;;5.40
20092;BMP180;10205;49.678;6.560;2023-02-28T01:40:18;100935.00;;;5.30
20092;BMP180;10205;49.678;6.560;2023-02-28T01:42:45;100933.00;;;5.30
20092;BMP180;10205;49.678;6.560;2023-02-28T01:45:23;100941.00;;;5.30
20092;BMP180;10205;49.678;6.560;2023-02-28T01:47:56;100934.00;;;5.20
20092;BMP180;10205;49.678;6.560;2023-02-28T01:50:28;100946.00;;;5.20
20092;BMP180;10205;49.678;6.560;2023-02-28T01:53:01;100934.00;;;5.20
20092;BMP180;10205;49.678;6.560;2023-02-28T01:55:31;100929.00;;;5.20
20092;BMP180;10205;49.678;6.560;2023-02-28T01:58:02;100942.00;;;5.10
20092;BMP180;10205;49.678;6.560;2023-02-28T02:00:32;100932.00;;;5.10
20092;BMP180;10205;49.678;6.560;2023-02-28T02:03:06;100921.00;;;5.10
20092;BMP180;10205;49.678;6.560;2023-02-28T02:05:38;100936.00;;;5.10
20092;BMP180;10205;49.678;6.560;2023-02-28T02:08:11;100928.00;;;5.00
20092;BMP180;10205;49.678;6.560;2023-02-28T02:10:43;100930.00;;;5.00
20092;BMP180;10205;49.678;6.560;2023-02-28T02:13:37;100931.00;;;5.00
20092;BMP180;10205;49.678;6.560;2023-02-28T02:16:25;100927.00;;;5.00
20092;BMP180;10205;49.678;6.560;2023-02-28T02:19:06;100925.00;;;5.00
20092;BMP180;10205;49.678;6.560;2023-02-28T02:22:21;100919.00;;;5.00
20092;BMP180;10205;49.678;6.560;2023-02-28T02:25:20;100923.00;;;4.90
20092;BMP180;10205;49.678;6.560;2023-02-28T02:34:33;100915.00;;;4.80
20092;BMP180;10205;49.678;6.560;2023-02-28T02:37:15;100924.00;;;4.80
20092;BMP180;10205;49.678;6.560;2023-02-28T02:39:53;100918.00;;;4.80
20092;BMP180;10205;49.678;6.560;2023-02-28T02:42:31;100909.00;;;4.70
20092;BMP180;10205;49.678;6.560;2023-02-28T02:45:07;100924.00;;;4.70
20092;BMP180;10205;49.678;6.560;2023-02-28T02:47:38;100915.00;;;4.70
20092;BMP180;10205;49.678;6.560;2023-02-28T02:50:17;100909.00;;;4.70
20092;BMP180;10205;49.678;6.560;2023-02-28T02:52:51;100904.00;;;4.60
20092;BMP180;10205;49.678;6.560;2023-02-28T02:55:23;100914.00;;;4.60
20092;BMP180;10205;49.678;6.560;2023-02-28T02:57:54;100916.00;;;4.60
20092;BMP180;10205;49.678;6.560;2023-02-28T03:00:30;100909.00;;;4.60
20092;BMP180;10205;49.678;6.560;2023-02-28T03:02:59;100913.00;;;4.50
20092;BMP180;10205;49.678;6.560;2023-02-28T03:05:35;100909.00;;;4.50
20092;BMP180;10205;49.678;6.560;2023-02-28T03:08:06;100907.00;;;4.50
20092;BMP180;10205;49.678;6.560;2023-02-28T03:10:38;100915.00;;;4.40
20092;BMP180;10205;49.678;6.560;2023-02-28T03:13:36;100916.00;;;4.40
20092;BMP180;10205;49.678;6.560;2023-02-28T03:16:36;100914.00;;;4.30
20092;BMP180;10205;49.678;6.560;2023-02-28T03:19:34;100909.00;;;4.30
20092;BMP180;10205;49.678;6.560;2023-02-28T03:22:30;100907.00;;;4.30
20092;BMP180;10205;49.678;6.560;2023-02-28T03:25:08;100912.00;;;4.30
20092;BMP180;10205;49.678;6.560;2023-02-28T03:27:47;100914.00;;;4.20
20092;BMP180;10205;49.678;6.560;2023-02-28T03:30:25;100916.00;;;4.30
20092;BMP180;10205;49.678;6.560;2023-02-28T03:33:00;100909.00;;;4.20
20092;BMP180;10205;49.678;6.560;2023-02-28T03:35:36;100912.00;;;4.20
20092;BMP180;10205;49.678;6.560;2023-02-28T03:38:11;100915.00;;;4.20
20092;BMP180;10205;49.678;6.560;2023-02-28T03:40:47;100911.00;;;4.20
20092;BMP180;10205;49.678;6.560;2023-02-28T03:43:27;100915.00;;;4.20
20092;BMP180;10205;49.678;6.560;2023-02-28T03:45:57;100908.00;;;4.20
20092;BMP180;10205;49.678;6.560;2023-02-28T03:48:33;100906.00;;;4.10
20092;BMP180;10205;49.678;6.560;2023-02-28T03:51:10;100933.00;;;4.20
20092;BMP180;10205;49.678;6.560;2023-02-28T03:53:45;100912.00;;;4.10
20092;BMP180;10205;49.678;6.560;2023-02-28T03:56:19;100914.00;;;4.10
20092;BMP180;10205;49.678;6.560;2023-02-28T03:58:53;100908.00;;;4.10
20092;BMP180;10205;49.678;6.560;2023-02-28T04:01:31;100915.00;;;4.10
20092;BMP180;10205;49.678;6.560;2023-02-28T04:04:00;100908.00;;;4.10
20092;BMP180;10205;49.678;6.560;2023-02-28T04:06:32;100911.00;;;4.00
20092;BMP180;10205;49.678;6.560;2023-02-28T04:09:01;100920.00;;;4.00
20092;BMP180;10205;49.678;6.560;2023-02-28T04:11:34;100922.00;;;4.00
20092;BMP180;10205;49.678;6.560;2023-02-28T04:14:03;100921.00;;;4.00
20092;BMP180;10205;49.678;6.560;2023-02-28T04:16:31;100923.00;;;3.90
20092;BMP180;10205;49.678;6.560;2023-02-28T04:18:59;100917.00;;;3.90
20092;BMP180;10205;49.678;6.560;2023-02-28T04:21:29;100924.00;;;3.90
20092;BMP180;10205;49.678;6.560;2023-02-28T04:23:56;100922.00;;;3.90
20092;BMP180;10205;49.678;6.560;2023-02-28T04:26:32;100918.00;;;3.80
20092;BMP180;10205;49.678;6.560;2023-02-28T04:29:01;100923.00;;;3.80
20092;BMP180;10205;49.678;6.560;2023-02-28T04:31:28;100921.00;;;3.80
20092;BMP180;10205;49.678;6.560;2023-02-28T04:33:56;100925.00;;;3.80
20092;BMP180;10205;49.678;6.560;2023-02-28T04:36:23;100918.00;;;3.80
20092;BMP180;10205;49.678;6.560;2023-02-28T04:38:50;100929.00;;;3.80
20092;BMP180;10205;49.678;6.560;2023-02-28T04:41:18;100914.00;;;3.70
20092;BMP180;10205;49.678;6.560;2023-02-28T04:43:46;100911.00;;;3.70
20092;BMP180;10205;49.678;6.560;2023-02-28T04:46:16;100913.00;;;3.70
20092;BMP180;10205;49.678;6.560;2023-02-28T04:48:45;100919.00;;;3.70
20092;BMP180;10205;49.678;6.560;2023-02-28T04:51:14;100909.00;;;3.70
20092;BMP180;10205;49.678;6.560;2023-02-28T04:53:43;100912.00;;;3.70
20092;BMP180;10205;49.678;6.560;2023-02-28T04:56:15;100917.00;;;3.60
20092;BMP180;10205;49.678;6.560;2023-02-28T04:58:43;100913.00;;;3.60
20092;BMP180;10205;49.678;6.560;2023-02-28T05:01:23;100911.00;;;3.60
20092;BMP180;10205;49.678;6.560;2023-02-28T05:03:59;100914.00;;;3.60
20092;BMP180;10205;49.678;6.560;2023-02-28T05:06:30;100918.00;;;3.50
20092;BMP180;10205;49.678;6.560;2023-02-28T05:08:58;100926.00;;;3.40
20092;BMP180;10205;49.678;6.560;2023-02-28T05:11:28;100922.00;;;3.40
20092;BMP180;10205;49.678;6.560;2023-02-28T05:13:59;100926.00;;;3.40
20092;BMP180;10205;49.678;6.560;2023-02-28T05:16:36;100918.00;;;3.30
20092;BMP180;10205;49.678;6.560;2023-02-28T05:19:05;100920.00;;;3.30
20092;BMP180;10205;49.678;6.560;2023-02-28T05:21:34;100926.00;;;3.20
20092;BMP180;10205;49.678;6.560;2023-02-28T05:24:04;100930.00;;;3.20
20092;BMP180;10205;49.678;6.560;2023-02-28T05:26:35;100928.00;;;3.20
20092;BMP180;10205;49.678;6.560;2023-02-28T05:29:02;100922.00;;;3.10
20092;BMP180;10205;49.678;6.560;2023-02-28T05:31:31;100937.00;;;3.10
20092;BMP180;10205;49.678;6.560;2023-02-28T05:33:59;100920.00;;;3.10
20092;BMP180;10205;49.678;6.560;2023-02-28T05:36:27;100928.00;;;3.10
20092;BMP180;10205;49.678;6.560;2023-02-28T05:38:54;100925.00;;;3.00
20092;BMP180;10205;49.678;6.560;2023-02-28T05:41:21;100933.00;;;3.00
20092;BMP180;10205;49.678;6.560;2023-02-28T05:43:49;100946.00;;;3.00
20092;BMP180;10205;49.678;6.560;2023-02-28T05:46:16;100945.00;;;3.00
20092;BMP180;10205;49.678;6.560;2023-02-28T05:48:47;100914.00;;;2.90
20092;BMP180;10205;49.678;6.560;2023-02-28T05:51:16;100935.00;;;2.90
20092;BMP180;10205;49.678;6.560;2023-02-28T05:53:44;100932.00;;;2.90
20092;BMP180;10205;49.678;6.560;2023-02-28T05:56:11;100941.00;;;2.90
20092;BMP180;10205;49.678;6.560;2023-02-28T05:58:38;100937.00;;;2.90
20092;BMP180;10205;49.678;6.560;2023-02-28T06:01:26;100931.00;;;2.90
20092;BMP180;10205;49.678;6.560;2023-02-28T06:03:58;100938.00;;;2.90
20092;BMP180;10205;49.678;6.560;2023-02-28T06:06:27;100923.00;;;2.80
20092;BMP180;10205;49.678;6.560;2023-02-28T06:08:55;100931.00;;;2.80
20092;BMP180;10205;49.678;6.560;2023-02-28T06:11:22;100934.00;;;2.80
20092;BMP180;10205;49.678;6.560;2023-02-28T06:13:54;100934.00;;;2.80
20092;BMP180;10205;49.678;6.560;2023-02-28T06:16:25;100933.00;;;2.70
20092;BMP180;10205;49.678;6.560;2023-02-28T06:18:53;100927.00;;;2.70
20092;BMP180;10205;49.678;6.560;2023-02-28T06:21:22;100962.00;;;2.70
20092;BMP180;10205;49.678;6.560;2023-02-28T06:23:50;100944.00;;;2.70
20092;BMP180;10205;49.678;6.560;2023-02-28T06:26:17;100948.00;;;2.70
20092;BMP180;10205;49.678;6.560;2023-02-28T06:28:45;100952.00;;;2.60
20092;BMP180;10205;49.678;6.560;2023-02-28T06:31:14;100950.00;;;2.60
20092;BMP180;10205;49.678;6.560;2023-02-28T06:33:43;100961.00;;;2.60
20092;BMP180;10205;49.678;6.560;2023-02-28T06:36:12;100966.00;;;2.60
20092;BMP180;10205;49.678;6.560;2023-02-28T06:38:41;100963.00;;;2.60
20092;BMP180;10205;49.678;6.560;2023-02-28T06:41:10;100960.00;;;2.60
20092;BMP180;10205;49.678;6.560;2023-02-28T06:43:41;100968.00;;;2.60
20092;BMP180;10205;49.678;6.560;2023-02-28T06:46:13;100975.00;;;2.60
20092;BMP180;10205;49.678;6.560;2023-02-28T06:48:40;100968.00;;;2.60
20092;BMP180;10205;49.678;6.560;2023-02-28T06:51:10;100964.00;;;2.60
20092;BMP180;10205;49.678;6.560;2023-02-28T06:53:39;100965.00;;;2.60
20092;BMP180;10205;49.678;6.560;2023-02-28T06:56:09;100974.00;;;2.60
20092;BMP180;10205;49.678;6.560;2023-02-28T06:58:36;100974.00;;;2.60
20092;BMP180;10205;49.678;6.560;2023-02-28T07:01:05;100983.00;;;2.60
20092;BMP180;10205;49.678;6.560;2023-02-28T07:03:35;100987.00;;;2.60
20092;BMP180;10205;49.678;6.560;2023-02-28T07:06:04;100989.00;;;2.60
20092;BMP180;10205;49.678;6.560;2023-02-28T07:08:31;100986.00;;;2.60
20092;BMP180;10205;49.678;6.560;2023-02-28T07:10:59;100988.00;;;2.60
20092;BMP180;10205;49.678;6.560;2023-02-28T07:13:27;100978.00;;;2.60
20092;BMP180;10205;49.678;6.560;2023-02-28T07:15:56;100995.00;;;2.60
20092;BMP180;10205;49.678;6.560;2023-02-28T07:18:24;100998.00;;;2.60
20092;BMP180;10205;49.678;6.560;2023-02-28T07:20:52;100994.00;;;2.60
20092;BMP180;10205;49.678;6.560;2023-02-28T07:23:20;100994.00;;;2.50
20092;BMP180;10205;49.678;6.560;2023-02-28T07:25:47;100994.00;;;2.50
20092;BMP180;10205;49.678;6.560;2023-02-28T07:28:17;100999.00;;;2.50
20092;BMP180;10205;49.678;6.560;2023-02-28T07:30:46;100992.00;;;2.50
20092;BMP180;10205;49.678;6.560;2023-02-28T07:33:14;101004.00;;;2.50
20092;BMP180;10205;49.678;6.560;2023-02-28T07:35:41;100996.00;;;2.50
20092;BMP180;10205;49.678;6.560;2023-02-28T07:38:08;101012.00;;;2.50
20092;BMP180;10205;49.678;6.560;2023-02-28T07:40:36;101000.00;;;2.50
20092;BMP180;10205;49.678;6.560;2023-02-28T07:43:05;100993.00;;;2.50
20092;BMP180;10205;49.678;6.560;2023-02-28T07:45:34;101009.00;;;2.50
20092;BMP180;10205;49.678;6.560;2023-02-28T07:48:03;100993.00;;;2.50
20092;BMP180;10205;49.678;6.560;2023-02-28T07:50:30;100981.00;;;2.50
20092;BMP180;10205;49.678;6.560;2023-02-28T07:52:57;100993.00;;;2.50
20092;BMP180;10205;49.678;6.560;2023-02-28T07:55:24;100991.00;;;2.50
20092;BMP180;10205;49.678;6.560;2023-02-28T07:57:52;100990.00;;;2.50
20092;BMP180;10205;49.678;6.560;2023-02-28T08:00:20;100987.00;;;2.50
20092;BMP180;10205;49.678;6.560;2023-02-28T08:02:47;100996.00;;;2.60
20092;BMP180;10205;49.678;6.560;2023-02-28T08:05:15;100992.00;;;2.60
20092;BMP180;10205;49.678;6.560;2023-02-28T08:07:42;100996.00;;;2.60
20092;BMP180;10205;49.678;6.560;2023-02-28T08:10:10;100997.00;;;2.70
20092;BMP180;10205;49.678;6.560;2023-02-28T08:12:39;100997.00;;;2.70
20092;BMP180;10205;49.678;6.560;2023-02-28T08:15:08;100994.00;;;2.70
20092;BMP180;10205;49.678;6.560;2023-02-28T08:17:37;101003.00;;;2.70
20092;BMP180;10205;49.678;6.560;2023-02-28T08:20:07;100987.00;;;2.80
20092;BMP180;10205;49.678;6.560;2023-02-28T08:22:36;101002.00;;;2.80
20092;BMP180;10205;49.678;6.560;2023-02-28T08:25:04;101005.00;;;2.90
20092;BMP180;10205;49.678;6.560;2023-02-28T08:27:33;100995.00;;;2.90
20092;BMP180;10205;49.678;6.560;2023-02-28T08:30:00;100993.00;;;3.00
20092;BMP180;10205;49.678;6.560;2023-02-28T08:32:27;100989.00;;;3.00
20092;BMP180;10205;49.678;6.560;2023-02-28T08:34:54;100986.00;;;3.10
20092;BMP180;10205;49.678;6.560;2023-02-28T08:37:23;100982.00;;;3.10
20092;BMP180;10205;49.678;6.560;2023-02-28T08:39:52;100973.00;;;3.10
20092;BMP180;10205;49.678;6.560;2023-02-28T08:42:19;100976.00;;;3.20
20092;BMP180;10205;49.678;6.560;2023-02-28T08:44:46;100988.00;;;3.30
20092;BMP180;10205;49.678;6.560;2023-02-28T08:47:13;100982.00;;;3.30
20092;BMP180;10205;49.678;6.560;2023-02-28T08:49:40;100965.00;;;3.40
20092;BMP180;10205;49.678;6.560;2023-02-28T08:52:07;100978.00;;;3.40
20092;BMP180;10205;49.678;6.560;2023-02-28T08:54:35;100972.00;;;3.50
20092;BMP180;10205;49.678;6.560;2023-02-28T08:57:03;100975.00;;;3.50
20092;BMP180;10205;49.678;6.560;2023-02-28T08:59:31;100975.00;;;3.60
20092;BMP180;10205;49.678;6.560;2023-02-28T09:01:59;100974.00;;;3.60
20092;BMP180;10205;49.678;6.560;2023-02-28T09:04:26;100964.00;;;3.70
20092;BMP180;10205;49.678;6.560;2023-02-28T09:06:56;100967.00;;;3.70
20092;BMP180;10205;49.678;6.560;2023-02-28T09:09:23;100956.00;;;3.80
20092;BMP180;10205;49.678;6.560;2023-02-28T09:11:50;100973.00;;;3.80
20092;BMP180;10205;49.678;6.560;2023-02-28T09:14:18;100957.00;;;3.80
20092;BMP180;10205;49.678;6.560;2023-02-28T09:16:45;100958.00;;;3.90
20092;BMP180;10205;49.678;6.560;2023-02-28T09:19:13;100955.00;;;4.00
20092;BMP180;10205;49.678;6.560;2023-02-28T09:21:40;100962.00;;;4.00
20092;BMP180;10205;49.678;6.560;2023-02-28T09:24:08;100970.00;;;4.10
20092;BMP180;10205;49.678;6.560;2023-02-28T09:26:37;100960.00;;;4.20
20092;BMP180;10205;49.678;6.560;2023-02-28T09:29:04;100968.00;;;4.20
20092;BMP180;10205;49.678;6.560;2023-02-28T09:31:33;100970.00;;;4.20
20092;BMP180;10205;49.678;6.560;2023-02-28T09:34:00;100976.00;;;4.30
20092;BMP180;10205;49.678;6.560;2023-02-28T09:36:27;100965.00;;;4.30
20092;BMP180;10205;49.678;6.560;2023-02-28T09:38:55;100959.00;;;4.40
20092;BMP180;10205;49.678;6.560;2023-02-28T09:41:25;100963.00;;;4.40
20092;BMP180;10205;49.678;6.560;2023-02-28T09:43:57;100958.00;;;4.50
20092;BMP180;10205;49.678;6.560;2023-02-28T09:46:33;100963.00;;;4.50
20092;BMP180;10205;49.678;6.560;2023-02-28T09:49:05;100961.00;;;4.60
20092;BMP180;10205;49.678;6.560;2023-02-28T09:51:50;100960.00;;;4.60
20092;BMP180;10205;49.678;6.560;2023-02-28T09:54:20;100964.00;;;4.60
20092;BMP180;10205;49.678;6.560;2023-02-28T09:56:51;100960.00;;;4.70
20092;BMP180;10205;49.678;6.560;2023-02-28T09:59:40;100964.00;;;4.70
20092;BMP180;10205;49.678;6.560;2023-02-28T10:02:41;100964.00;;;4.80
20092;BMP180;10205;49.678;6.560;2023-02-28T10:05:16;100963.00;;;4.80
20092;BMP180;10205;49.678;6.560;2023-02-28T10:08:01;100967.00;;;4.80
20092;BMP180;10205;49.678;6.560;2023-02-28T10:10:38;100963.00;;;4.90
20092;BMP180;10205;49.678;6.560;2023-02-28T10:13:16;100964.00;;;4.90
20092;BMP180;10205;49.678;6.560;2023-02-28T10:15:51;100965.00;;;5.00
20092;BMP180;10205;49.678;6.560;2023-02-28T10:18:25;100951.00;;;5.00
20092;BMP180;10205;49.678;6.560;2023-02-28T10:20:55;100966.00;;;5.00
20092;BMP180;10205;49.678;6.560;2023-02-28T10:23:31;100975.00;;;5.10
20092;BMP180;10205;49.678;6.560;2023-02-28T10:26:12;100950.00;;;5.20
20092;BMP180;10205;49.678;6.560;2023-02-28T10:28:43;100954.00;;;5.20
20092;BMP180;10205;49.678;6.560;2023-02-28T10:31:17;100948.00;;;5.30
20092;BMP180;10205;49.678;6.560;2023-02-28T10:33:47;100951.00;;;5.30
20092;BMP180;10205;49.678;6.560;2023-02-28T10:36:18;100945.00;;;5.40
20092;BMP180;10205;49.678;6.560;2023-02-28T10:38:46;100947.00;;;5.50
20092;BMP180;10205;49.678;6.560;2023-02-28T10:41:27;100957.00;;;5.50
20092;BMP180;10205;49.678;6.560;2023-02-28T10:44:17;100934.00;;;5.60
20092;BMP180;10205;49.678;6.560;2023-02-28T10:46:46;100925.00;;;5.70
20092;BMP180;10205;49.678;6.560;2023-02-28T10:49:20;100924.00;;;5.80
20092;BMP180;10205;49.678;6.560;2023-02-28T10:51:52;100926.00;;;5.80
20092;BMP180;10205;49.678;6.560;2023-02-28T10:54:26;100919.00;;;5.90
20092;BMP180;10205;49.678;6.560;2023-02-28T10:57:08;100909.00;;;6.00
20092;BMP180;10205;49.678;6.560;2023-02-28T10:59:36;100949.00;;;6.00
20092;BMP180;10205;49.678;6.560;2023-02-28T11:02:33;100924.00;;;6.10
20092;BMP180;10205;49.678;6.560;2023-02-28T11:05:02;100915.00;;;6.10
20092;BMP180;10205;49.678;6.560;2023-02-28T11:07:29;100916.00;;;6.20
20092;BMP180;10205;49.678;6.560;2023-02-28T11:09:58;100917.00;;;6.20
20092;BMP180;10205;49.678;6.560;2023-02-28T11:12:29;100904.00;;;6.30
20092;BMP180;10205;49.678;6.560;2023-02-28T11:15:02;100914.00;;;6.30
20092;BMP180;10205;49.678;6.560;2023-02-28T11:17:32;100908.00;;;6.40
20092;BMP180;10205;49.678;6.560;2023-02-28T11:20:04;100904.00;;;6.40
20092;BMP180;10205;49.678;6.560;2023-02-28T11:22:38;100905.00;;;6.50
20092;BMP180;10205;49.678;6.560;2023-02-28T11:25:12;100913.00;;;6.50
20092;BMP180;10205;49.678;6.560;2023-02-28T11:27:47;100902.00;;;6.50
20092;BMP180;10205;49.678;6.560;2023-02-28T11:30:40;100916.00;;;6.60
20092;BMP180;10205;49.678;6.560;2023-02-28T11:33:28;100903.00;;;6.70
20092;BMP180;10205;49.678;6.560;2023-02-28T11:36:01;100891.00;;;6.70
20092;BMP180;10205;49.678;6.560;2023-02-28T11:38:29;100907.00;;;6.70
20092;BMP180;10205;49.678;6.560;2023-02-28T11:41:17;100885.00;;;6.80
20092;BMP180;10205;49.678;6.560;2023-02-28T11:44:09;100901.00;;;6.80
20092;BMP180;10205;49.678;6.560;2023-02-28T11:46:47;100895.00;;;6.80
20092;BMP180;10205;49.678;6.560;2023-02-28T11:49:31;100882.00;;;6.90
20092;BMP180;10205;49.678;6.560;2023-02-28T11:52:14;100895.00;;;6.90
20092;BMP180;10205;49.678;6.560;2023-02-28T11:55:02;100892.00;;;6.90
20092;BMP180;10205;49.678;6.560;2023-02-28T11:58:03;100894.00;;;6.90
20092;BMP180;10205;49.678;6.560;2023-02-28T12:01:13;100896.00;;;7.00
20092;BMP180;10205;49.678;6.560;2023-02-28T12:03:59;100887.00;;;7.00
20092;BMP180;10205;49.678;6.560;2023-02-28T12:06:33;100885.00;;;7.00
20092;BMP180;10205;49.678;6.560;2023-02-28T12:09:24;100879.00;;;7.10
20092;BMP180;10205;49.678;6.560;2023-02-28T12:12:03;100886.00;;;7.10
20092;BMP180;10205;49.678;6.560;2023-02-28T12:18:18;100895.00;;;7.20
20092;BMP180;10205;49.678;6.560;2023-02-28T12:20:55;100892.00;;;7.20
20092;BMP180;10205;49.678;6.560;2023-02-28T12:23:55;100890.00;;;7.30
20092;BMP180;10205;49.678;6.560;2023-02-28T12:26:35;100906.00;;;7.30
20092;BMP180;10205;49.678;6.560;2023-02-28T12:29:14;100888.00;;;7.30
20092;BMP180;10205;49.678;6.560;2023-02-28T12:31:49;100895.00;;;7.40
20092;BMP180;10205;49.678;6.560;2023-02-28T12:34:24;100869.00;;;7.40
20092;BMP180;10205;49.678;6.560;2023-02-28T12:36:55;100865.00;;;7.50
20092;BMP180;10205;49.678;6.560;2023-02-28T12:39:26;100865.00;;;7.50
20092;BMP180;10205;49.678;6.560;2023-02-28T12:42:02;100864.00;;;7.60
20092;BMP180;10205;49.678;6.560;2023-02-28T12:44:40;100858.00;;;7.60
20092;BMP180;10205;49.678;6.560;2023-02-28T12:47:15;100857.00;;;7.70
20092;BMP180;10205;49.678;6.560;2023-02-28T12:49:49;100852.00;;;7.70
20092;BMP180;10205;49.678;6.560;2023-02-28T12:52:23;100855.00;;;7.80
20092;BMP180;10205;49.678;6.560;2023-02-28T12:54:58;100863.00;;;7.80
20092;BMP180;10205;49.678;6.560;2023-02-28T12:57:36;100856.00;;;7.80
20092;BMP180;10205;49.678;6.560;2023-02-28T13:00:13;100847.00;;;7.90
20092;BMP180;10205;49.678;6.560;2023-02-28T13:06:19;100853.00;;;7.90
20092;BMP180;10205;49.678;6.560;2023-02-28T13:09:03;100851.00;;;8.00
20092;BMP180;10205;49.678;6.560;2023-02-28T13:11:38;100850.00;;;8.00
20092;BMP180;10205;49.678;6.560;2023-02-28T13:14:21;100854.00;;;8.00
20092;BMP180;10205;49.678;6.560;2023-02-28T13:17:03;100854.00;;;8.00
20092;BMP180;10205;49.678;6.560;2023-02-28T13:19:39;100845.00;;;8.10
20092;BMP180;10205;49.678;6.560;2023-02-28T13:22:20;100839.00;;;8.10
20092;BMP180;10205;49.678;6.560;2023-02-28T13:24:50;100839.00;;;8.20
20092;BMP180;10205;49.678;6.560;2023-02-28T13:27:31;100833.00;;;8.20
20092;BMP180;10205;49.678;6.560;2023-02-28T13:30:01;100816.00;;;8.30
20092;BMP180;10205;49.678;6.560;2023-02-28T13:32:35;100828.00;;;8.30
20092;BMP180;10205;49.678;6.560;2023-02-28T13:35:44;100835.00;;;8.30
20092;BMP180;10205;49.678;6.560;2023-02-28T13:38:35;100832.00;;;8.40
20092;BMP180;10205;49.678;6.560;2023-02-28T13:41:54;100829.00;;;8.40
20092;BMP180;10205;49.678;6.560;2023-02-28T13:44:23;100830.00;;;8.40
20092;BMP180;10205;49.678;6.560;2023-02-28T13:47:28;100832.00;;;8.40
20092;BMP180;10205;49.678;6.560;2023-02-28T13:50:19;100818.00;;;8.40
20092;BMP180;10205;49.678;6.560;2023-02-28T13:55:49;100848.00;;;8.50
20092;BMP180;10205;49.678;6.560;2023-02-28T13:58:39;100838.00;;;8.50
20092;BMP180;10205;49.678;6.560;2023-02-28T14:01:48;100832.00;;;8.60
20092;BMP180;10205;49.678;6.560;2023-02-28T14:04:59;100836.00;;;8.60
20092;BMP180;10205;49.678;6.560;2023-02-28T14:07:32;100838.00;;;8.60
20092;BMP180;10205;49.678;6.560;2023-02-28T14:10:04;100820.00;;;8.60
20092;BMP180;10205;49.678;6.560;2023-02-28T14:13:11;100826.00;;;8.60
20092;BMP180;10205;49.678;6.560;2023-02-28T14:15:46;100817.00;;;8.60
20092;BMP180;10205;49.678;6.560;2023-02-28T14:18:30;100812.00;;;8.60
20092;BMP180;10205;49.678;6.560;2023-02-28T14:21:09;100818.00;;;8.60
20092;BMP180;10205;49.678;6.560;2023-02-28T14:24:16;100822.00;;;8.70
20092;BMP180;10205;49.678;6.560;2023-02-28T14:27:21;100826.00;;;8.70
20092;BMP180;10205;49.678;6.560;2023-02-28T14:30:29;100827.00;;;8.70
20092;BMP180;10205;49.678;6.560;2023-02-28T14:33:20;100824.00;;;8.70
20092;BMP180;10205;49.678;6.560;2023-02-28T14:36:12;100830.00;;;8.70
20092;BMP180;10205;49.678;6.560;2023-02-28T14:38:45;100825.00;;;8.70
20092;BMP180;10205;49.678;6.560;2023-02-28T14:41:22;100818.00;;;8.80
20092;BMP180;10205;49.678;6.560;2023-02-28T14:43:56;100819.00;;;8.80
20092;BMP180;10205;49.678;6.560;2023-02-28T14:46:35;100814.00;;;8.80
20092;BMP180;10205;49.678;6.560;2023-02-28T14:49:05;100810.00;;;8.80
20092;BMP180;10205;49.678;6.560;2023-02-28T14:51:35;100823.00;;;8.90
20092;BMP180;10205;49.678;6.560;2023-02-28T14:54:04;100827.00;;;9.00
20092;BMP180;10205;49.678;6.560;2023-02-28T14:56:41;100813.00;;;9.10
20092;BMP180;10205;49.678;6.560;2023-02-28T14:59:32;100813.00;;;9.20
20092;BMP180;10205;49.678;6.560;2023-02-28T15:02:21;100810.00;;;9.30
20092;BMP180;10205;49.678;6.560;2023-02-28T15:04:57;100811.00;;;9.40